sensor_id;sensor_type;location;lat;lon;timestamp;temperature;humidity
21832;DHT22;11078;49.872;6.188;2022-08-11T00:01:56;16.20;2.40
21832;DHT22;11078;49.872;6.188;2022-08-11T00:04:25;16.10;2.30
21832;DHT22;11078;49.872;6.188;2022-08-11T00:06:52;16.10;2.60
21832;DHT22;11078;49.872;6.188;2022-08-11T00:09:22;16.10;2.40
21832;DHT22;11078;49.872;6.188;2022-08-11T00:11:51;16.10;3.40
21832;DHT22;11078;49.872;6.188;2022-08-11T00:14:21;16.10;3.00
21832;DHT22;11078;49.872;6.188;2022-08-11T00:16:56;16.00;2.70
21832;DHT22;11078;49.872;6.188;2022-08-11T00:19:26;16.00;4.80
21832;DHT22;11078;49.872;6.188;2022-08-11T00:21:53;15.90;3.50
21832;DHT22;11078;49.872;6.188;2022-08-11T00:24:23;15.90;2.90
21832;DHT22;11078;49.872;6.188;2022-08-11T00:26:51;15.80;3.40
21832;DHT22;11078;49.872;6.188;2022-08-11T00:29:18;15.70;3.30
21832;DHT22;11078;49.872;6.188;2022-08-11T00:31:48;15.70;3.30
21832;DHT22;11078;49.872;6.188;2022-08-11T00:34:17;15.60;3.90
21832;DHT22;11078;49.872;6.188;2022-08-11T00:36:56;15.60;3.70
21832;DHT22;11078;49.872;6.188;2022-08-11T00:39:25;15.60;4.30
21832;DHT22;11078;49.872;6.188;2022-08-11T00:42:17;15.50;3.70
21832;DHT22;11078;49.872;6.188;2022-08-11T00:45:06;15.50;7.90
21832;DHT22;11078;49.872;6.188;2022-08-11T00:47:52;15.50;6.80
21832;DHT22;11078;49.872;6.188;2022-08-11T00:50:46;15.40;5.90
21832;DHT22;11078;49.872;6.188;2022-08-11T00:53:34;15.40;7.50
21832;DHT22;11078;49.872;6.188;2022-08-11T00:56:17;15.40;7.30
21832;DHT22;11078;49.872;6.188;2022-08-11T00:59:16;15.30;6.90
21832;DHT22;11078;49.872;6.188;2022-08-11T01:11:12;15.20;8.80
21832;DHT22;11078;49.872;6.188;2022-08-11T01:23:01;15.00;9.20
21832;DHT22;11078;49.872;6.188;2022-08-11T01:25:47;15.00;9.60
21832;DHT22;11078;49.872;6.188;2022-08-11T01:28:48;15.00;7.30
21832;DHT22;11078;49.872;6.188;2022-08-11T01:31:39;14.90;8.60
21832;DHT22;11078;49.872;6.188;2022-08-11T01:37:20;14.80;9.00
21832;DHT22;11078;49.872;6.188;2022-08-11T01:40:16;14.80;8.70
21832;DHT22;11078;49.872;6.188;2022-08-11T01:43:07;14.70;8.90
21832;DHT22;11078;49.872;6.188;2022-08-11T01:48:54;14.70;7.80
21832;DHT22;11078;49.872;6.188;2022-08-11T01:57:15;14.70;7.30
21832;DHT22;11078;49.872;6.188;2022-08-11T01:59:49;14.70;8.00
21832;DHT22;11078;49.872;6.188;2022-08-11T02:02:38;14.60;6.00
21832;DHT22;11078;49.872;6.188;2022-08-11T02:05:43;14.60;9.50
21832;DHT22;11078;49.872;6.188;2022-08-11T02:08:30;14.50;10.50
21832;DHT22;11078;49.872;6.188;2022-08-11T02:11:17;14.40;9.30
21832;DHT22;11078;49.872;6.188;2022-08-11T02:14:16;14.40;10.00
21832;DHT22;11078;49.872;6.188;2022-08-11T02:16:57;14.40;10.30
21832;DHT22;11078;49.872;6.188;2022-08-11T02:23:00;14.30;8.20
21832;DHT22;11078;49.872;6.188;2022-08-11T02:31:52;14.30;9.50
21832;DHT22;11078;49.872;6.188;2022-08-11T02:34:46;14.20;10.50
21832;DHT22;11078;49.872;6.188;2022-08-11T02:37:35;14.20;7.50
21832;DHT22;11078;49.872;6.188;2022-08-11T02:40:29;14.20;9.80
21832;DHT22;11078;49.872;6.188;2022-08-11T02:43:11;14.20;7.90
21832;DHT22;11078;49.872;6.188;2022-08-11T02:45:47;14.10;9.40
21832;DHT22;11078;49.872;6.188;2022-08-11T02:48:49;14.10;8.50
21832;DHT22;11078;49.872;6.188;2022-08-11T02:51:41;14.10;9.20
21832;DHT22;11078;49.872;6.188;2022-08-11T02:57:17;14.00;7.50
21832;DHT22;11078;49.872;6.188;2022-08-11T02:59:52;14.00;10.20
21832;DHT22;11078;49.872;6.188;2022-08-11T03:05:30;13.90;10.40
21832;DHT22;11078;49.872;6.188;2022-08-11T03:08:14;13.90;8.40
21832;DHT22;11078;49.872;6.188;2022-08-11T03:14:20;13.90;10.10
21832;DHT22;11078;49.872;6.188;2022-08-11T03:20:22;13.80;10.10
21832;DHT22;11078;49.872;6.188;2022-08-11T03:23:03;13.80;11.80
21832;DHT22;11078;49.872;6.188;2022-08-11T03:25:45;13.70;9.70
21832;DHT22;11078;49.872;6.188;2022-08-11T03:28:42;13.70;10.10
21832;DHT22;11078;49.872;6.188;2022-08-11T03:34:07;13.60;9.30
21832;DHT22;11078;49.872;6.188;2022-08-11T03:39:59;13.60;11.10
21832;DHT22;11078;49.872;6.188;2022-08-11T03:42:56;13.60;12.40
21832;DHT22;11078;49.872;6.188;2022-08-11T03:45:32;13.50;11.50
21832;DHT22;11078;49.872;6.188;2022-08-11T03:48:19;13.50;8.80
21832;DHT22;11078;49.872;6.188;2022-08-11T04:06:02;13.30;9.40
21832;DHT22;11078;49.872;6.188;2022-08-11T04:12:05;13.20;12.00
21832;DHT22;11078;49.872;6.188;2022-08-11T04:14:46;13.20;11.70
21832;DHT22;11078;49.872;6.188;2022-08-11T04:20:48;13.10;12.40
21832;DHT22;11078;49.872;6.188;2022-08-11T04:23:40;13.10;12.20
21832;DHT22;11078;49.872;6.188;2022-08-11T04:26:35;13.10;12.40
21832;DHT22;11078;49.872;6.188;2022-08-11T04:35:23;13.00;12.10
21832;DHT22;11078;49.872;6.188;2022-08-11T04:44:15;13.00;12.30
21832;DHT22;11078;49.872;6.188;2022-08-11T04:47:07;13.00;12.20
21832;DHT22;11078;49.872;6.188;2022-08-11T04:49:57;13.00;12.70
21832;DHT22;11078;49.872;6.188;2022-08-11T04:56:05;13.10;13.10
21832;DHT22;11078;49.872;6.188;2022-08-11T05:05:22;13.10;12.30
21832;DHT22;11078;49.872;6.188;2022-08-11T05:11:31;13.20;14.10
21832;DHT22;11078;49.872;6.188;2022-08-11T05:14:24;13.20;12.60
21832;DHT22;11078;49.872;6.188;2022-08-11T05:17:10;13.20;13.20
21832;DHT22;11078;49.872;6.188;2022-08-11T05:19:54;13.20;9.60
21832;DHT22;11078;49.872;6.188;2022-08-11T05:22:36;13.30;9.30
21832;DHT22;11078;49.872;6.188;2022-08-11T05:25:26;13.30;9.30
21832;DHT22;11078;49.872;6.188;2022-08-11T05:28:11;13.30;11.10
21832;DHT22;11078;49.872;6.188;2022-08-11T05:30:59;13.40;9.80
21832;DHT22;11078;49.872;6.188;2022-08-11T05:33:48;13.40;10.20
21832;DHT22;11078;49.872;6.188;2022-08-11T05:36:40;13.50;10.30
21832;DHT22;11078;49.872;6.188;2022-08-11T05:39:15;13.60;11.10
21832;DHT22;11078;49.872;6.188;2022-08-11T05:41:58;13.60;10.60
21832;DHT22;11078;49.872;6.188;2022-08-11T05:44:44;13.70;9.90
21832;DHT22;11078;49.872;6.188;2022-08-11T05:47:26;13.80;10.40
21832;DHT22;11078;49.872;6.188;2022-08-11T05:50:10;13.80;9.70
21832;DHT22;11078;49.872;6.188;2022-08-11T05:52:52;14.00;9.90
21832;DHT22;11078;49.872;6.188;2022-08-11T05:55:38;14.10;9.70
21832;DHT22;11078;49.872;6.188;2022-08-11T05:58:20;14.20;10.80
21832;DHT22;11078;49.872;6.188;2022-08-11T06:00:46;14.30;9.70
21832;DHT22;11078;49.872;6.188;2022-08-11T06:03:25;14.50;9.70
21832;DHT22;11078;49.872;6.188;2022-08-11T06:05:52;14.80;11.80
21832;DHT22;11078;49.872;6.188;2022-08-11T06:08:27;15.20;9.30
21832;DHT22;11078;49.872;6.188;2022-08-11T06:11:00;15.80;11.00
21832;DHT22;11078;49.872;6.188;2022-08-11T06:13:27;16.60;9.30
21832;DHT22;11078;49.872;6.188;2022-08-11T06:15:55;17.60;6.50
21832;DHT22;11078;49.872;6.188;2022-08-11T06:18:22;18.60;5.50
21832;DHT22;11078;49.872;6.188;2022-08-11T06:20:51;19.70;4.10
21832;DHT22;11078;49.872;6.188;2022-08-11T06:23:20;20.60;3.00
21832;DHT22;11078;49.872;6.188;2022-08-11T06:25:50;21.50;2.00
21832;DHT22;11078;49.872;6.188;2022-08-11T06:28:17;22.30;1.10
21832;DHT22;11078;49.872;6.188;2022-08-11T06:30:46;23.10;1.00
21832;DHT22;11078;49.872;6.188;2022-08-11T06:33:20;23.90;1.00
21832;DHT22;11078;49.872;6.188;2022-08-11T06:36:11;24.60;1.00
21832;DHT22;11078;49.872;6.188;2022-08-11T06:41:48;25.80;1.00
21832;DHT22;11078;49.872;6.188;2022-08-11T06:44:23;26.30;1.00
21832;DHT22;11078;49.872;6.188;2022-08-11T06:46:53;26.80;1.00
21832;DHT22;11078;49.872;6.188;2022-08-11T06:49:31;27.20;1.00
21832;DHT22;11078;49.872;6.188;2022-08-11T06:52:13;27.60;1.00
21832;DHT22;11078;49.872;6.188;2022-08-11T06:54:43;27.90;1.00
21832;DHT22;11078;49.872;6.188;2022-08-11T06:57:14;28.20;1.00
21832;DHT22;11078;49.872;6.188;2022-08-11T07:00:00;28.50;1.00
21832;DHT22;11078;49.872;6.188;2022-08-11T07:02:48;28.90;1.00
21832;DHT22;11078;49.872;6.188;2022-08-11T07:05:41;29.10;1.00
21832;DHT22;11078;49.872;6.188;2022-08-11T07:14:44;29.90;1.00
21832;DHT22;11078;49.872;6.188;2022-08-11T07:17:32;30.00;1.00
21832;DHT22;11078;49.872;6.188;2022-08-11T07:20:17;30.40;1.00
21832;DHT22;11078;49.872;6.188;2022-08-11T07:23:11;30.70;1.00
21832;DHT22;11078;49.872;6.188;2022-08-11T07:25:53;31.10;1.00
21832;DHT22;11078;49.872;6.188;2022-08-11T07:28:41;31.20;1.00
21832;DHT22;11078;49.872;6.188;2022-08-11T07:31:34;31.50;1.00
21832;DHT22;11078;49.872;6.188;2022-08-11T07:34:26;31.80;1.00
21832;DHT22;11078;49.872;6.188;2022-08-11T07:36:56;31.90;1.00
21832;DHT22;11078;49.872;6.188;2022-08-11T07:39:26;31.90;1.00
21832;DHT22;11078;49.872;6.188;2022-08-11T07:41:56;31.90;1.00
21832;DHT22;11078;49.872;6.188;2022-08-11T07:44:24;31.90;1.00
21832;DHT22;11078;49.872;6.188;2022-08-11T07:46:55;31.90;1.00
21832;DHT22;11078;49.872;6.188;2022-08-11T07:49:51;32.00;1.00
21832;DHT22;11078;49.872;6.188;2022-08-11T07:52:36;32.10;1.00
21832;DHT22;11078;49.872;6.188;2022-08-11T07:55:11;31.80;1.00
21832;DHT22;11078;49.872;6.188;2022-08-11T07:57:38;31.60;1.00
21832;DHT22;11078;49.872;6.188;2022-08-11T08:00:20;31.60;1.00
21832;DHT22;11078;49.872;6.188;2022-08-11T08:03:03;31.60;1.00
21832;DHT22;11078;49.872;6.188;2022-08-11T08:05:46;31.60;1.00
21832;DHT22;11078;49.872;6.188;2022-08-11T08:08:29;31.60;1.00
21832;DHT22;11078;49.872;6.188;2022-08-11T08:11:11;31.80;1.00
21832;DHT22;11078;49.872;6.188;2022-08-11T08:13:53;31.90;1.00
21832;DHT22;11078;49.872;6.188;2022-08-11T08:16:38;32.00;1.00
21832;DHT22;11078;49.872;6.188;2022-08-11T08:19:20;32.20;1.00
21832;DHT22;11078;49.872;6.188;2022-08-11T08:21:47;32.50;1.00
21832;DHT22;11078;49.872;6.188;2022-08-11T08:24:14;32.60;1.00
21832;DHT22;11078;49.872;6.188;2022-08-11T08:26:47;32.80;1.00
21832;DHT22;11078;49.872;6.188;2022-08-11T08:29:32;32.90;1.00
21832;DHT22;11078;49.872;6.188;2022-08-11T08:32:19;33.10;1.00
21832;DHT22;11078;49.872;6.188;2022-08-11T08:34:50;33.00;1.00
21832;DHT22;11078;49.872;6.188;2022-08-11T08:37:18;33.10;1.00
21832;DHT22;11078;49.872;6.188;2022-08-11T08:39:46;33.20;1.00
21832;DHT22;11078;49.872;6.188;2022-08-11T08:42:17;33.10;1.00
21832;DHT22;11078;49.872;6.188;2022-08-11T08:44:49;33.20;1.00
21832;DHT22;11078;49.872;6.188;2022-08-11T08:47:18;33.20;1.00
21832;DHT22;11078;49.872;6.188;2022-08-11T08:49:48;33.40;1.00
21832;DHT22;11078;49.872;6.188;2022-08-11T08:52:22;33.30;1.00
21832;DHT22;11078;49.872;6.188;2022-08-11T08:54:51;33.40;1.00
21832;DHT22;11078;49.872;6.188;2022-08-11T08:57:21;33.40;1.00
21832;DHT22;11078;49.872;6.188;2022-08-11T08:59:49;33.40;1.00
21832;DHT22;11078;49.872;6.188;2022-08-11T09:02:18;33.50;1.00
21832;DHT22;11078;49.872;6.188;2022-08-11T09:04:46;33.70;1.00
21832;DHT22;11078;49.872;6.188;2022-08-11T09:07:15;33.80;1.00
21832;DHT22;11078;49.872;6.188;2022-08-11T09:09:44;33.80;1.00
21832;DHT22;11078;49.872;6.188;2022-08-11T09:12:11;33.80;1.00
21832;DHT22;11078;49.872;6.188;2022-08-11T09:14:40;33.80;1.00
21832;DHT22;11078;49.872;6.188;2022-08-11T09:17:23;33.70;1.00
21832;DHT22;11078;49.872;6.188;2022-08-11T09:19:53;33.60;1.00
21832;DHT22;11078;49.872;6.188;2022-08-11T09:22:25;33.70;1.00
21832;DHT22;11078;49.872;6.188;2022-08-11T09:25:06;33.70;1.00
21832;DHT22;11078;49.872;6.188;2022-08-11T09:27:48;33.70;1.00
21832;DHT22;11078;49.872;6.188;2022-08-11T09:30:15;33.80;1.00
21832;DHT22;11078;49.872;6.188;2022-08-11T09:32:42;33.80;1.00
21832;DHT22;11078;49.872;6.188;2022-08-11T09:35:09;33.80;1.00
21832;DHT22;11078;49.872;6.188;2022-08-11T09:37:36;33.90;1.00
21832;DHT22;11078;49.872;6.188;2022-08-11T09:40:19;34.10;1.00
21832;DHT22;11078;49.872;6.188;2022-08-11T09:43:04;34.20;1.00
21832;DHT22;11078;49.872;6.188;2022-08-11T09:45:49;34.20;1.00
21832;DHT22;11078;49.872;6.188;2022-08-11T09:48:18;34.20;1.00
21832;DHT22;11078;49.872;6.188;2022-08-11T09:50:48;34.10;1.00
21832;DHT22;11078;49.872;6.188;2022-08-11T09:53:16;34.20;1.00
21832;DHT22;11078;49.872;6.188;2022-08-11T09:55:44;34.30;1.00
21832;DHT22;11078;49.872;6.188;2022-08-11T09:58:12;34.50;1.00
21832;DHT22;11078;49.872;6.188;2022-08-11T10:00:39;34.60;1.00
21832;DHT22;11078;49.872;6.188;2022-08-11T10:03:13;34.50;1.00
21832;DHT22;11078;49.872;6.188;2022-08-11T10:05:44;34.40;1.00
21832;DHT22;11078;49.872;6.188;2022-08-11T10:08:28;34.50;1.00
21832;DHT22;11078;49.872;6.188;2022-08-11T10:10:55;34.70;1.00
21832;DHT22;11078;49.872;6.188;2022-08-11T10:13:28;34.70;1.00
21832;DHT22;11078;49.872;6.188;2022-08-11T10:15:58;34.70;1.00
21832;DHT22;11078;49.872;6.188;2022-08-11T10:18:33;34.70;1.00
21832;DHT22;11078;49.872;6.188;2022-08-11T10:21:16;34.70;1.00
21832;DHT22;11078;49.872;6.188;2022-08-11T10:23:47;34.60;1.00
21832;DHT22;11078;49.872;6.188;2022-08-11T10:26:30;34.60;1.00
21832;DHT22;11078;49.872;6.188;2022-08-11T10:29:14;34.70;1.00
21832;DHT22;11078;49.872;6.188;2022-08-11T10:31:57;34.80;1.00
21832;DHT22;11078;49.872;6.188;2022-08-11T10:34:39;34.90;1.00
21832;DHT22;11078;49.872;6.188;2022-08-11T10:37:06;34.90;1.00
21832;DHT22;11078;49.872;6.188;2022-08-11T10:39:33;34.80;1.00
21832;DHT22;11078;49.872;6.188;2022-08-11T10:42:04;34.70;1.00
21832;DHT22;11078;49.872;6.188;2022-08-11T10:44:49;34.60;1.00
21832;DHT22;11078;49.872;6.188;2022-08-11T10:47:18;34.30;1.00
21832;DHT22;11078;49.872;6.188;2022-08-11T10:50:01;34.10;1.00
21832;DHT22;11078;49.872;6.188;2022-08-11T10:52:45;34.20;1.00
21832;DHT22;11078;49.872;6.188;2022-08-11T10:55:28;34.20;1.00
21832;DHT22;11078;49.872;6.188;2022-08-11T10:58:11;34.10;1.00
21832;DHT22;11078;49.872;6.188;2022-08-11T11:00:53;34.20;1.00
21832;DHT22;11078;49.872;6.188;2022-08-11T11:03:25;34.30;1.00
21832;DHT22;11078;49.872;6.188;2022-08-11T11:06:00;34.40;1.00
21832;DHT22;11078;49.872;6.188;2022-08-11T11:08:30;34.50;1.00
21832;DHT22;11078;49.872;6.188;2022-08-11T11:11:13;34.50;1.00
21832;DHT22;11078;49.872;6.188;2022-08-11T11:13:46;34.60;1.00
21832;DHT22;11078;49.872;6.188;2022-08-11T11:16:30;34.60;1.00
21832;DHT22;11078;49.872;6.188;2022-08-11T11:19:12;34.70;1.00
21832;DHT22;11078;49.872;6.188;2022-08-11T11:21:40;34.80;1.00
21832;DHT22;11078;49.872;6.188;2022-08-11T11:24:32;34.80;1.00
21832;DHT22;11078;49.872;6.188;2022-08-11T11:27:18;34.80;1.00
21832;DHT22;11078;49.872;6.188;2022-08-11T11:30:04;34.80;1.00
21832;DHT22;11078;49.872;6.188;2022-08-11T11:32:47;35.00;1.00
21832;DHT22;11078;49.872;6.188;2022-08-11T11:40:57;35.50;1.00
21832;DHT22;11078;49.872;6.188;2022-08-11T11:43:42;35.50;1.00
21832;DHT22;11078;49.872;6.188;2022-08-11T11:46:12;35.70;1.00
21832;DHT22;11078;49.872;6.188;2022-08-11T11:48:39;35.60;1.00
21832;DHT22;11078;49.872;6.188;2022-08-11T11:51:06;35.50;1.00
21832;DHT22;11078;49.872;6.188;2022-08-11T11:53:42;35.40;1.00
21832;DHT22;11078;49.872;6.188;2022-08-11T11:56:10;35.00;1.00
21832;DHT22;11078;49.872;6.188;2022-08-11T11:58:39;34.90;1.00
21832;DHT22;11078;49.872;6.188;2022-08-11T12:01:39;34.90;1.00
21832;DHT22;11078;49.872;6.188;2022-08-11T12:04:13;35.20;1.00
21832;DHT22;11078;49.872;6.188;2022-08-11T12:06:47;35.40;1.00
21832;DHT22;11078;49.872;6.188;2022-08-11T12:09:34;35.50;1.00
21832;DHT22;11078;49.872;6.188;2022-08-11T12:12:07;35.50;1.00
21832;DHT22;11078;49.872;6.188;2022-08-11T12:14:49;35.50;1.00
21832;DHT22;11078;49.872;6.188;2022-08-11T12:17:18;35.50;1.00
21832;DHT22;11078;49.872;6.188;2022-08-11T12:19:44;35.50;1.00
21832;DHT22;11078;49.872;6.188;2022-08-11T12:22:12;35.60;1.00
21832;DHT22;11078;49.872;6.188;2022-08-11T12:24:57;35.70;1.00
21832;DHT22;11078;49.872;6.188;2022-08-11T12:27:39;35.70;1.00
21832;DHT22;11078;49.872;6.188;2022-08-11T12:30:06;35.70;1.00
21832;DHT22;11078;49.872;6.188;2022-08-11T12:32:35;35.70;1.00
21832;DHT22;11078;49.872;6.188;2022-08-11T12:35:03;35.70;1.00
21832;DHT22;11078;49.872;6.188;2022-08-11T12:37:39;35.70;1.00
21832;DHT22;11078;49.872;6.188;2022-08-11T12:40:11;35.70;1.00
21832;DHT22;11078;49.872;6.188;2022-08-11T12:42:54;35.60;1.00
21832;DHT22;11078;49.872;6.188;2022-08-11T12:45:40;35.50;1.00
21832;DHT22;11078;49.872;6.188;2022-08-11T12:48:17;35.50;1.00
21832;DHT22;11078;49.872;6.188;2022-08-11T12:51:04;35.30;1.00
21832;DHT22;11078;49.872;6.188;2022-08-11T12:54:15;35.30;1.00
21832;DHT22;11078;49.872;6.188;2022-08-11T12:56:47;35.40;1.00
21832;DHT22;11078;49.872;6.188;2022-08-11T12:59:38;35.50;1.00
21832;DHT22;11078;49.872;6.188;2022-08-11T13:02:23;35.50;1.00
21832;DHT22;11078;49.872;6.188;2022-08-11T13:05:10;35.30;1.00
21832;DHT22;11078;49.872;6.188;2022-08-11T13:07:37;35.30;1.00
21832;DHT22;11078;49.872;6.188;2022-08-11T13:10:16;35.30;1.00
21832;DHT22;11078;49.872;6.188;2022-08-11T13:13:14;35.30;1.00
21832;DHT22;11078;49.872;6.188;2022-08-11T13:15:41;35.20;1.00
21832;DHT22;11078;49.872;6.188;2022-08-11T13:18:15;35.10;1.00
21832;DHT22;11078;49.872;6.188;2022-08-11T13:21:09;35.20;1.00
21832;DHT22;11078;49.872;6.188;2022-08-11T13:23:39;35.00;1.00
21832;DHT22;11078;49.872;6.188;2022-08-11T13:26:06;35.00;1.00
21832;DHT22;11078;49.872;6.188;2022-08-11T13:28:35;35.10;1.00
21832;DHT22;11078;49.872;6.188;2022-08-11T13:31:02;35.10;1.00
21832;DHT22;11078;49.872;6.188;2022-08-11T13:33:51;35.10;1.00
21832;DHT22;11078;49.872;6.188;2022-08-11T13:36:20;35.10;1.00
21832;DHT22;11078;49.872;6.188;2022-08-11T13:38:47;35.10;1.00
21832;DHT22;11078;49.872;6.188;2022-08-11T13:41:14;35.20;1.00
21832;DHT22;11078;49.872;6.188;2022-08-11T13:43:57;35.30;1.00
21832;DHT22;11078;49.872;6.188;2022-08-11T13:46:24;35.10;1.00
21832;DHT22;11078;49.872;6.188;2022-08-11T13:48:53;35.00;1.00
21832;DHT22;11078;49.872;6.188;2022-08-11T13:51:22;34.90;1.00
21832;DHT22;11078;49.872;6.188;2022-08-11T13:54:16;35.10;1.00
21832;DHT22;11078;49.872;6.188;2022-08-11T13:56:46;34.90;1.00
21832;DHT22;11078;49.872;6.188;2022-08-11T13:59:14;34.80;1.00
21832;DHT22;11078;49.872;6.188;2022-08-11T14:01:50;34.70;1.00
21832;DHT22;11078;49.872;6.188;2022-08-11T14:04:24;34.80;1.00
21832;DHT22;11078;49.872;6.188;2022-08-11T14:06:53;34.80;1.00
21832;DHT22;11078;49.872;6.188;2022-08-11T14:09:25;34.80;1.00
21832;DHT22;11078;49.872;6.188;2022-08-11T14:11:57;34.70;1.00
21832;DHT22;11078;49.872;6.188;2022-08-11T14:14:42;34.70;1.00
21832;DHT22;11078;49.872;6.188;2022-08-11T14:17:13;34.80;1.00
21832;DHT22;11078;49.872;6.188;2022-08-11T14:19:47;34.80;1.00
21832;DHT22;11078;49.872;6.188;2022-08-11T14:22:14;34.80;1.00
21832;DHT22;11078;49.872;6.188;2022-08-11T14:24:43;34.80;1.00
21832;DHT22;11078;49.872;6.188;2022-08-11T14:27:15;34.90;1.00
21832;DHT22;11078;49.872;6.188;2022-08-11T14:29:42;34.80;1.00
21832;DHT22;11078;49.872;6.188;2022-08-11T14:32:10;34.60;1.00
21832;DHT22;11078;49.872;6.188;2022-08-11T14:34:40;34.50;1.00
21832;DHT22;11078;49.872;6.188;2022-08-11T14:37:11;34.50;1.00
21832;DHT22;11078;49.872;6.188;2022-08-11T14:39:43;34.50;1.00
21832;DHT22;11078;49.872;6.188;2022-08-11T14:42:13;34.50;1.00
21832;DHT22;11078;49.872;6.188;2022-08-11T14:44:58;34.60;1.00
21832;DHT22;11078;49.872;6.188;2022-08-11T14:47:42;34.70;1.00
21832;DHT22;11078;49.872;6.188;2022-08-11T14:50:17;34.80;1.00
21832;DHT22;11078;49.872;6.188;2022-08-11T14:52:54;34.70;1.00
21832;DHT22;11078;49.872;6.188;2022-08-11T14:55:23;34.70;1.00
21832;DHT22;11078;49.872;6.188;2022-08-11T14:58:29;34.60;1.00
21832;DHT22;11078;49.872;6.188;2022-08-11T15:00:59;34.50;1.00
21832;DHT22;11078;49.872;6.188;2022-08-11T15:03:30;34.60;1.00
21832;DHT22;11078;49.872;6.188;2022-08-11T15:05:59;34.60;1.00
21832;DHT22;11078;49.872;6.188;2022-08-11T15:08:29;34.50;1.00
21832;DHT22;11078;49.872;6.188;2022-08-11T15:11:12;34.50;1.00
21832;DHT22;11078;49.872;6.188;2022-08-11T15:13:55;34.60;1.00
21832;DHT22;11078;49.872;6.188;2022-08-11T15:16:28;34.50;1.00
21832;DHT22;11078;49.872;6.188;2022-08-11T15:19:10;34.50;1.00
21832;DHT22;11078;49.872;6.188;2022-08-11T15:21:37;34.60;1.00
21832;DHT22;11078;49.872;6.188;2022-08-11T15:24:19;34.60;1.00
21832;DHT22;11078;49.872;6.188;2022-08-11T15:26:46;34.70;1.00
21832;DHT22;11078;49.872;6.188;2022-08-11T15:29:32;34.60;1.00
21832;DHT22;11078;49.872;6.188;2022-08-11T15:32:19;34.60;1.00
21832;DHT22;11078;49.872;6.188;2022-08-11T15:34:59;34.50;1.00
21832;DHT22;11078;49.872;6.188;2022-08-11T15:37:43;34.50;1.00
21832;DHT22;11078;49.872;6.188;2022-08-11T15:40:21;34.50;1.00
21832;DHT22;11078;49.872;6.188;2022-08-11T15:43:10;34.50;1.00
21832;DHT22;11078;49.872;6.188;2022-08-11T15:45:56;34.50;1.00
21832;DHT22;11078;49.872;6.188;2022-08-11T15:48:40;34.40;1.00
21832;DHT22;11078;49.872;6.188;2022-08-11T15:51:11;34.40;1.00
21832;DHT22;11078;49.872;6.188;2022-08-11T15:53:44;34.40;1.00
21832;DHT22;11078;49.872;6.188;2022-08-11T15:56:11;34.30;1.00
21832;DHT22;11078;49.872;6.188;2022-08-11T15:58:45;34.30;1.00
21832;DHT22;11078;49.872;6.188;2022-08-11T16:01:27;34.30;1.00
21832;DHT22;11078;49.872;6.188;2022-08-11T16:04:14;34.20;1.00
21832;DHT22;11078;49.872;6.188;2022-08-11T16:09:31;34.20;1.00
21832;DHT22;11078;49.872;6.188;2022-08-11T16:12:05;34.10;1.00
21832;DHT22;11078;49.872;6.188;2022-08-11T16:14:38;34.10;1.00
21832;DHT22;11078;49.872;6.188;2022-08-11T16:17:28;34.00;1.00
21832;DHT22;11078;49.872;6.188;2022-08-11T16:19:56;34.10;1.00
21832;DHT22;11078;49.872;6.188;2022-08-11T16:22:29;33.90;1.00
21832;DHT22;11078;49.872;6.188;2022-08-11T16:25:19;33.90;1.00
21832;DHT22;11078;49.872;6.188;2022-08-11T16:27:56;33.90;1.00
21832;DHT22;11078;49.872;6.188;2022-08-11T16:30:30;33.70;1.00
21832;DHT22;11078;49.872;6.188;2022-08-11T16:33:03;33.70;1.00
21832;DHT22;11078;49.872;6.188;2022-08-11T16:35:33;33.60;1.00
21832;DHT22;11078;49.872;6.188;2022-08-11T16:38:16;33.60;1.00
21832;DHT22;11078;49.872;6.188;2022-08-11T16:41:09;33.60;1.00
21832;DHT22;11078;49.872;6.188;2022-08-11T16:43:41;33.50;1.00
21832;DHT22;11078;49.872;6.188;2022-08-11T16:46:24;33.50;1.00
21832;DHT22;11078;49.872;6.188;2022-08-11T16:49:15;33.40;1.00
21832;DHT22;11078;49.872;6.188;2022-08-11T16:51:44;33.40;1.00
21832;DHT22;11078;49.872;6.188;2022-08-11T16:54:13;33.30;1.00
21832;DHT22;11078;49.872;6.188;2022-08-11T16:56:48;33.30;1.00
21832;DHT22;11078;49.872;6.188;2022-08-11T16:59:25;33.30;1.00
21832;DHT22;11078;49.872;6.188;2022-08-11T17:02:04;33.30;1.00
21832;DHT22;11078;49.872;6.188;2022-08-11T17:04:49;33.20;1.00
21832;DHT22;11078;49.872;6.188;2022-08-11T17:07:30;33.10;1.00
21832;DHT22;11078;49.872;6.188;2022-08-11T17:10:27;32.90;1.00
21832;DHT22;11078;49.872;6.188;2022-08-11T17:13:12;32.80;1.00
21832;DHT22;11078;49.872;6.188;2022-08-11T17:15:47;32.60;1.00
21832;DHT22;11078;49.872;6.188;2022-08-11T17:18:30;32.50;1.00
21832;DHT22;11078;49.872;6.188;2022-08-11T17:21:24;32.30;1.00
21832;DHT22;11078;49.872;6.188;2022-08-11T17:27:20;32.00;1.00
21832;DHT22;11078;49.872;6.188;2022-08-11T17:30:03;31.80;1.00
21832;DHT22;11078;49.872;6.188;2022-08-11T17:32:36;31.60;1.00
21832;DHT22;11078;49.872;6.188;2022-08-11T17:35:29;31.50;1.00
21832;DHT22;11078;49.872;6.188;2022-08-11T17:38:05;31.40;1.00
21832;DHT22;11078;49.872;6.188;2022-08-11T17:40:34;31.30;1.00
21832;DHT22;11078;49.872;6.188;2022-08-11T17:43:06;31.20;1.00
21832;DHT22;11078;49.872;6.188;2022-08-11T17:45:48;31.00;1.00
21832;DHT22;11078;49.872;6.188;2022-08-11T17:48:44;30.90;1.00
21832;DHT22;11078;49.872;6.188;2022-08-11T17:51:17;30.90;1.00
21832;DHT22;11078;49.872;6.188;2022-08-11T17:54:01;30.80;1.00
21832;DHT22;11078;49.872;6.188;2022-08-11T17:56:47;30.80;1.00
21832;DHT22;11078;49.872;6.188;2022-08-11T17:59:33;30.60;1.00
21832;DHT22;11078;49.872;6.188;2022-08-11T18:02:30;30.50;1.00
21832;DHT22;11078;49.872;6.188;2022-08-11T18:05:15;30.40;1.00
21832;DHT22;11078;49.872;6.188;2022-08-11T18:07:47;30.20;1.00
21832;DHT22;11078;49.872;6.188;2022-08-11T18:10:34;30.10;1.00
21832;DHT22;11078;49.872;6.188;2022-08-11T18:13:20;29.90;1.00
21832;DHT22;11078;49.872;6.188;2022-08-11T18:16:04;29.80;1.00
21832;DHT22;11078;49.872;6.188;2022-08-11T18:18:47;29.70;1.00
21832;DHT22;11078;49.872;6.188;2022-08-11T18:21:29;29.60;1.00
21832;DHT22;11078;49.872;6.188;2022-08-11T18:24:12;29.50;1.00
21832;DHT22;11078;49.872;6.188;2022-08-11T18:26:59;29.30;1.00
21832;DHT22;11078;49.872;6.188;2022-08-11T18:29:50;29.20;1.00
21832;DHT22;11078;49.872;6.188;2022-08-11T18:32:37;29.10;1.00
21832;DHT22;11078;49.872;6.188;2022-08-11T18:35:20;28.90;1.00
21832;DHT22;11078;49.872;6.188;2022-08-11T18:38:07;28.70;1.00
21832;DHT22;11078;49.872;6.188;2022-08-11T18:40:58;28.50;1.00
21832;DHT22;11078;49.872;6.188;2022-08-11T18:44:04;28.30;1.00
21832;DHT22;11078;49.872;6.188;2022-08-11T18:47:07;28.10;1.00
21832;DHT22;11078;49.872;6.188;2022-08-11T18:49:52;27.90;1.00
21832;DHT22;11078;49.872;6.188;2022-08-11T18:52:42;27.60;1.00
21832;DHT22;11078;49.872;6.188;2022-08-11T19:00:55;27.00;1.00
21832;DHT22;11078;49.872;6.188;2022-08-11T19:03:46;26.80;1.00
21832;DHT22;11078;49.872;6.188;2022-08-11T19:06:41;26.60;1.00
21832;DHT22;11078;49.872;6.188;2022-08-11T19:09:45;26.40;1.00
21832;DHT22;11078;49.872;6.188;2022-08-11T19:13:05;26.10;1.00